Hauptseite
METAR-TAF:

METAR-TAF

Flughäfen :

Fairford, England

RAF Fairford

Breite: 51-41N, Länge: 001-47W, Höhe: 87 m

Beobachtung

Neuester Wetterbericht von vor 51 Minuten, um 10:56 UTC
Wind 17 kt aus Süd/Südwest
Temperatur 12°C
Luftfeuchtigkeit 88%
Luftdruck 1013 hPa
Sichtweite 10 km oder mehr
Durchbrochene Bewölkung in der Höhe von 1100 ft
Geschlossene Wolkendecke in der Höhe von 2400 ft

METAR: EGVA 231056Z 21017KT 9999 BKN011 OVC024 12/10 A2990 RMK AO2A SLP130 T01190103 RVRNO $

Zeit: 11:47 (11:47 UTC)


TAF: fehlend

Wetterbeobachtungen und Prognosen von mehr als 4000 Flughäfen (METAR und TAF Bericht).

Die verfügbaren Stationen werden durch gelbe und rote Markierungen auf der Karte dargestellt.

Führen Sie die Maus auf sie, um den Namen der Station zu sehen.

Darauf klicken, um die Beobachtung von Wetterbeobachtungen und Prognosen zu sehen.

Um die Karte zu ändern : klicken Sie auf den grünen Tasten mit einem schwarzen Kreuz Zum Vergrößern, auf den grünen Button mit einem Gedankenstrich zu verkleinern, oder auf die grünen Pfeile für benachbarte Karten.


METAR-TAF: